Terminal Aerodrome Forecast
Issued by NWS

Home | Current Version | Previous Version | Text Only | Print | Product List | Glossary On
Versions: 1 2 3 4 5 6 7 8 9 10 11 12 13 14 15 16 17 18 19 20 21 22 23 24 25 26 27 28 29 30 31 32 33 34 35 36 37 38 39 40 41 42 43 44 45 46 47 48 49 50
135
FTUS46 KPQR 220533
TAFONP
TAF
KONP 220533Z 2206/2306 33006KT 1/2SM FG OVC002
     FM220700 29003KT 1/4SM FG OVC002
     FM221900 30007KT 1 1/2SM BR OVC003
     FM222100 31009G18KT 2SM BR BKN006
     FM230200 34008KT 1/2SM FG OVC002=

USA.gov is the U.S. government's official web portal to all federal, state and local government web resources and services.